sensor_id;sensor_type;location;lat;lon;timestamp;pressure;altitude;pressure_sealevel;temperature;humidity
4012;BME280;2020;48.682;9.024;2023-01-31T00:01:32;97320.25;;;0.09;100.00
4012;BME280;2020;48.682;9.024;2023-01-31T00:04:00;97317.06;;;0.04;100.00
4012;BME280;2020;48.682;9.024;2023-01-31T00:06:36;97318.88;;;0.02;100.00
4012;BME280;2020;48.682;9.024;2023-01-31T00:09:04;97321.38;;;0.03;100.00
4012;BME280;2020;48.682;9.024;2023-01-31T00:11:31;97313.88;;;-0.02;100.00
4012;BME280;2020;48.682;9.024;2023-01-31T00:13:58;97308.00;;;-0.04;100.00
4012;BME280;2020;48.682;9.024;2023-01-31T00:16:23;97306.41;;;-0.06;100.00
4012;BME280;2020;48.682;9.024;2023-01-31T00:18:50;97300.47;;;-0.07;100.00
4012;BME280;2020;48.682;9.024;2023-01-31T00:21:18;97297.28;;;-0.12;100.00
4012;BME280;2020;48.682;9.024;2023-01-31T00:23:44;97303.44;;;-0.16;100.00
4012;BME280;2020;48.682;9.024;2023-01-31T00:26:18;97291.53;;;-0.17;100.00
4012;BME280;2020;48.682;9.024;2023-01-31T00:28:45;97295.13;;;-0.21;100.00
4012;BME280;2020;48.682;9.024;2023-01-31T00:31:12;97297.81;;;-0.24;100.00
4012;BME280;2020;48.682;9.024;2023-01-31T00:33:40;97295.47;;;-0.29;100.00
4012;BME280;2020;48.682;9.024;2023-01-31T00:36:08;97288.81;;;-0.33;100.00
4012;BME280;2020;48.682;9.024;2023-01-31T00:38:33;97289.94;;;-0.39;100.00
4012;BME280;2020;48.682;9.024;2023-01-31T00:40:59;97298.38;;;-0.37;100.00
4012;BME280;2020;48.682;9.024;2023-01-31T00:43:24;97291.72;;;-0.41;100.00
4012;BME280;2020;48.682;9.024;2023-01-31T00:45:50;97297.75;;;-0.42;100.00
4012;BME280;2020;48.682;9.024;2023-01-31T00:48:15;97301.88;;;-0.39;100.00
4012;BME280;2020;48.682;9.024;2023-01-31T00:50:40;97301.06;;;-0.40;100.00
4012;BME280;2020;48.682;9.024;2023-01-31T00:53:06;97291.72;;;-0.41;100.00
4012;BME280;2020;48.682;9.024;2023-01-31T00:55:31;97291.84;;;-0.44;100.00
4012;BME280;2020;48.682;9.024;2023-01-31T00:57:57;97292.81;;;-0.47;100.00
4012;BME280;2020;48.682;9.024;2023-01-31T01:00:22;97288.53;;;-0.46;100.00
4012;BME280;2020;48.682;9.024;2023-01-31T01:02:47;97284.31;;;-0.47;100.00
4012;BME280;2020;48.682;9.024;2023-01-31T01:05:13;97293.69;;;-0.48;100.00
4012;BME280;2020;48.682;9.024;2023-01-31T01:07:38;97277.59;;;-0.50;100.00
4012;BME280;2020;48.682;9.024;2023-01-31T01:10:04;97286.88;;;-0.47;100.00
4012;BME280;2020;48.682;9.024;2023-01-31T01:12:30;97280.09;;;-0.48;100.00
4012;BME280;2020;48.682;9.024;2023-01-31T01:14:55;97275.94;;;-0.51;100.00
4012;BME280;2020;48.682;9.024;2023-01-31T01:17:21;97276.69;;;-0.49;100.00
4012;BME280;2020;48.682;9.024;2023-01-31T01:19:46;97275.94;;;-0.51;100.00
4012;BME280;2020;48.682;9.024;2023-01-31T01:22:11;97272.47;;;-0.50;100.00
4012;BME280;2020;48.682;9.024;2023-01-31T01:24:41;97276.78;;;-0.50;100.00
4012;BME280;2020;48.682;9.024;2023-01-31T01:27:07;97279.38;;;-0.52;100.00
4012;BME280;2020;48.682;9.024;2023-01-31T01:29:32;97278.56;;;-0.52;100.00
4012;BME280;2020;48.682;9.024;2023-01-31T01:31:57;97286.25;;;-0.52;100.00
4012;BME280;2020;48.682;9.024;2023-01-31T01:34:23;97280.50;;;-0.57;100.00
4012;BME280;2020;48.682;9.024;2023-01-31T01:36:48;97285.53;;;-0.56;100.00
4012;BME280;2020;48.682;9.024;2023-01-31T01:39:13;97280.63;;;-0.61;100.00
4012;BME280;2020;48.682;9.024;2023-01-31T01:41:39;97268.75;;;-0.62;100.00
4012;BME280;2020;48.682;9.024;2023-01-31T01:44:41;97271.16;;;-0.58;100.00
4012;BME280;2020;48.682;9.024;2023-01-31T01:47:32;97279.78;;;-0.61;100.00
4012;BME280;2020;48.682;9.024;2023-01-31T01:50:06;97272.06;;;-0.60;100.00
4012;BME280;2020;48.682;9.024;2023-01-31T01:52:35;97279.66;;;-0.58;100.00
4012;BME280;2020;48.682;9.024;2023-01-31T01:55:20;97280.50;;;-0.57;100.00
4012;BME280;2020;48.682;9.024;2023-01-31T01:57:49;97287.28;;;-0.56;100.00
4012;BME280;2020;48.682;9.024;2023-01-31T02:00:20;97285.63;;;-0.57;100.00
4012;BME280;2020;48.682;9.024;2023-01-31T02:02:46;97293.19;;;-0.56;100.00
4012;BME280;2020;48.682;9.024;2023-01-31T02:05:16;97292.53;;;-0.60;100.00
4012;BME280;2020;48.682;9.024;2023-01-31T02:07:44;97300.38;;;-0.64;100.00
4012;BME280;2020;48.682;9.024;2023-01-31T02:10:23;97291.00;;;-0.64;100.00
4012;BME280;2020;48.682;9.024;2023-01-31T02:12:50;97290.16;;;-0.64;100.00
4012;BME280;2020;48.682;9.024;2023-01-31T02:15:16;97291.00;;;-0.64;100.00
4012;BME280;2020;48.682;9.024;2023-01-31T02:17:41;97296.09;;;-0.64;100.00
4012;BME280;2020;48.682;9.024;2023-01-31T02:22:45;97296.09;;;-0.64;100.00
4012;BME280;2020;48.682;9.024;2023-01-31T02:33:43;97307.41;;;-0.69;100.00
4012;BME280;2020;48.682;9.024;2023-01-31T02:41:49;97291.22;;;-0.70;100.00
4012;BME280;2020;48.682;9.024;2023-01-31T02:44:25;97304.97;;;-0.72;100.00
4012;BME280;2020;48.682;9.024;2023-01-31T02:47:14;97310.91;;;-0.72;100.00
4012;BME280;2020;48.682;9.024;2023-01-31T02:49:57;97315.25;;;-0.74;100.00
4012;BME280;2020;48.682;9.024;2023-01-31T02:55:48;97315.25;;;-0.74;100.00
4012;BME280;2020;48.682;9.024;2023-01-31T02:58:37;97319.47;;;-0.73;100.00
4012;BME280;2020;48.682;9.024;2023-01-31T03:01:04;97324.66;;;-0.75;100.00
4012;BME280;2020;48.682;9.024;2023-01-31T03:03:33;97318.59;;;-0.72;100.00
4012;BME280;2020;48.682;9.024;2023-01-31T03:08:50;97313.59;;;-0.75;100.00
4012;BME280;2020;48.682;9.024;2023-01-31T03:11:18;97315.50;;;-0.80;100.00
4012;BME280;2020;48.682;9.024;2023-01-31T03:14:18;97318.84;;;-0.78;100.00
4012;BME280;2020;48.682;9.024;2023-01-31T03:16:55;97319.72;;;-0.79;100.00
4012;BME280;2020;48.682;9.024;2023-01-31T03:22:59;97327.53;;;-0.82;100.00
4012;BME280;2020;48.682;9.024;2023-01-31T03:25:28;97326.13;;;-0.90;100.00
4012;BME280;2020;48.682;9.024;2023-01-31T03:27:58;97320.19;;;-0.90;100.00
4012;BME280;2020;48.682;9.024;2023-01-31T03:30:36;97324.47;;;-0.91;100.00
4012;BME280;2020;48.682;9.024;2023-01-31T03:33:14;97327.78;;;-0.89;100.00
4012;BME280;2020;48.682;9.024;2023-01-31T03:35:44;97317.69;;;-0.92;100.00
4012;BME280;2020;48.682;9.024;2023-01-31T03:38:16;97328.75;;;-0.91;100.00
4012;BME280;2020;48.682;9.024;2023-01-31T03:40:53;97331.34;;;-0.93;100.00
4012;BME280;2020;48.682;9.024;2023-01-31T03:43:47;97329.56;;;-0.91;100.00
4012;BME280;2020;48.682;9.024;2023-01-31T03:46:18;97327.91;;;-0.92;100.00
4012;BME280;2020;48.682;9.024;2023-01-31T03:48:49;97331.34;;;-0.93;100.00
4012;BME280;2020;48.682;9.024;2023-01-31T03:51:18;97325.44;;;-0.93;100.00
4012;BME280;2020;48.682;9.024;2023-01-31T03:53:50;97332.31;;;-0.95;100.00
4012;BME280;2020;48.682;9.024;2023-01-31T03:56:31;97330.66;;;-0.96;100.00
4012;BME280;2020;48.682;9.024;2023-01-31T03:59:03;97333.28;;;-0.98;100.00
4012;BME280;2020;48.682;9.024;2023-01-31T04:01:33;97331.69;;;-1.00;100.00
4012;BME280;2020;48.682;9.024;2023-01-31T04:04:04;97340.28;;;-1.03;100.00
4012;BME280;2020;48.682;9.024;2023-01-31T04:06:32;97344.59;;;-1.04;100.00
4012;BME280;2020;48.682;9.024;2023-01-31T04:08:57;97346.38;;;-1.06;100.00
4012;BME280;2020;48.682;9.024;2023-01-31T04:11:25;97342.06;;;-1.05;100.00
4012;BME280;2020;48.682;9.024;2023-01-31T04:13:50;97337.09;;;-1.08;100.00
4012;BME280;2020;48.682;9.024;2023-01-31T04:16:16;97347.19;;;-1.05;100.00
4012;BME280;2020;48.682;9.024;2023-01-31T04:18:41;97342.31;;;-1.11;100.00
4012;BME280;2020;48.682;9.024;2023-01-31T04:21:06;97345.78;;;-1.12;100.00
4012;BME280;2020;48.682;9.024;2023-01-31T04:23:32;97344.97;;;-1.13;100.00
4012;BME280;2020;48.682;9.024;2023-01-31T04:25:57;97344.00;;;-1.10;100.00
4012;BME280;2020;48.682;9.024;2023-01-31T04:28:22;97335.56;;;-1.12;100.00
4012;BME280;2020;48.682;9.024;2023-01-31T04:30:55;97345.78;;;-1.12;100.00
4012;BME280;2020;48.682;9.024;2023-01-31T04:33:21;97344.09;;;-1.13;100.00
4012;BME280;2020;48.682;9.024;2023-01-31T04:35:47;97342.44;;;-1.14;100.00
4012;BME280;2020;48.682;9.024;2023-01-31T04:38:12;97353.44;;;-1.12;100.00
4012;BME280;2020;48.682;9.024;2023-01-31T04:40:37;97357.78;;;-1.14;100.00
4012;BME280;2020;48.682;9.024;2023-01-31T04:43:03;97351.13;;;-1.19;100.00
4012;BME280;2020;48.682;9.024;2023-01-31T04:45:28;97349.34;;;-1.16;100.00
4012;BME280;2020;48.682;9.024;2023-01-31T04:47:53;97351.00;;;-1.15;100.00
4012;BME280;2020;48.682;9.024;2023-01-31T04:50:19;97356.84;;;-1.12;100.00
4012;BME280;2020;48.682;9.024;2023-01-31T04:52:44;97361.22;;;-1.15;100.00
4012;BME280;2020;48.682;9.024;2023-01-31T04:55:11;97359.56;;;-1.16;100.00
4012;BME280;2020;48.682;9.024;2023-01-31T04:57:36;97351.13;;;-1.19;100.00
4012;BME280;2020;48.682;9.024;2023-01-31T05:00:02;97359.81;;;-1.23;100.00
4012;BME280;2020;48.682;9.024;2023-01-31T05:02:29;97353.28;;;-1.30;100.00
4012;BME280;2020;48.682;9.024;2023-01-31T05:04:54;97356.72;;;-1.31;100.00
4012;BME280;2020;48.682;9.024;2023-01-31T05:07:20;97346.50;;;-1.31;100.00
4012;BME280;2020;48.682;9.024;2023-01-31T05:09:45;97337.41;;;-1.38;100.00
4012;BME280;2020;48.682;9.024;2023-01-31T05:12:10;97335.03;;;-1.43;100.00
4012;BME280;2020;48.682;9.024;2023-01-31T05:14:35;97348.53;;;-1.39;100.00
4012;BME280;2020;48.682;9.024;2023-01-31T05:17:01;97352.66;;;-1.37;100.00
4012;BME280;2020;48.682;9.024;2023-01-31T05:19:26;97358.75;;;-1.39;100.00
4012;BME280;2020;48.682;9.024;2023-01-31T05:21:52;97358.63;;;-1.36;100.00
4012;BME280;2020;48.682;9.024;2023-01-31T05:24:24;97355.41;;;-1.41;100.00
4012;BME280;2020;48.682;9.024;2023-01-31T05:26:50;97357.31;;;-1.47;100.00
4012;BME280;2020;48.682;9.024;2023-01-31T05:29:18;97362.53;;;-1.50;100.00
4012;BME280;2020;48.682;9.024;2023-01-31T05:31:43;97362.66;;;-1.53;100.00
4012;BME280;2020;48.682;9.024;2023-01-31T05:34:09;97370.97;;;-1.48;100.00
4012;BME280;2020;48.682;9.024;2023-01-31T05:36:35;97360.09;;;-1.53;100.00
4012;BME280;2020;48.682;9.024;2023-01-31T05:39:01;97367.75;;;-1.53;100.00
4012;BME280;2020;48.682;9.024;2023-01-31T05:41:26;97365.31;;;-1.56;100.00
4012;BME280;2020;48.682;9.024;2023-01-31T05:43:51;97364.56;;;-1.58;100.00
4012;BME280;2020;48.682;9.024;2023-01-31T05:46:17;97361.03;;;-1.55;100.00
4012;BME280;2020;48.682;9.024;2023-01-31T05:48:42;97362.66;;;-1.53;100.00
4012;BME280;2020;48.682;9.024;2023-01-31T05:51:07;97358.38;;;-1.52;100.00
4012;BME280;2020;48.682;9.024;2023-01-31T05:53:32;97355.94;;;-1.55;100.00
4012;BME280;2020;48.682;9.024;2023-01-31T05:55:58;97367.75;;;-1.53;100.00
4012;BME280;2020;48.682;9.024;2023-01-31T05:58:23;97359.44;;;-1.58;100.00
4012;BME280;2020;48.682;9.024;2023-01-31T06:00:48;97361.09;;;-1.57;100.00
4012;BME280;2020;48.682;9.024;2023-01-31T06:03:13;97363.66;;;-1.57;100.00
4012;BME280;2020;48.682;9.024;2023-01-31T06:05:39;97360.34;;;-1.59;100.00
4012;BME280;2020;48.682;9.024;2023-01-31T06:08:05;97362.78;;;-1.56;100.00
4012;BME280;2020;48.682;9.024;2023-01-31T06:10:30;97357.66;;;-1.56;100.00
4012;BME280;2020;48.682;9.024;2023-01-31T06:12:55;97368.00;;;-1.59;100.00
4012;BME280;2020;48.682;9.024;2023-01-31T06:15:21;97371.44;;;-1.60;100.00
4012;BME280;2020;48.682;9.024;2023-01-31T06:17:46;97368.00;;;-1.59;100.00
4012;BME280;2020;48.682;9.024;2023-01-31T06:20:11;97369.78;;;-1.61;100.00
4012;BME280;2020;48.682;9.024;2023-01-31T06:22:37;97367.50;;;-1.69;100.00
4012;BME280;2020;48.682;9.024;2023-01-31T06:25:02;97370.00;;;-1.67;100.00
4012;BME280;2020;48.682;9.024;2023-01-31T06:27:31;97376.78;;;-1.66;100.00
4012;BME280;2020;48.682;9.024;2023-01-31T06:29:56;97376.78;;;-1.66;100.00
4012;BME280;2020;48.682;9.024;2023-01-31T06:32:21;97375.03;;;-1.66;100.00
4012;BME280;2020;48.682;9.024;2023-01-31T06:34:47;97375.22;;;-1.70;100.00
4012;BME280;2020;48.682;9.024;2023-01-31T06:37:12;97389.56;;;-1.68;100.00
4012;BME280;2020;48.682;9.024;2023-01-31T06:39:37;97378.56;;;-1.68;100.00
4012;BME280;2020;48.682;9.024;2023-01-31T06:42:03;97378.56;;;-1.68;100.00
4012;BME280;2020;48.682;9.024;2023-01-31T06:44:28;97391.44;;;-1.71;100.00
4012;BME280;2020;48.682;9.024;2023-01-31T06:46:53;97394.75;;;-1.69;100.00
4012;BME280;2020;48.682;9.024;2023-01-31T06:49:19;97393.97;;;-1.71;100.00
4012;BME280;2020;48.682;9.024;2023-01-31T06:51:44;97398.19;;;-1.70;100.00
4012;BME280;2020;48.682;9.024;2023-01-31T06:54:09;97398.09;;;-1.67;100.00
4012;BME280;2020;48.682;9.024;2023-01-31T06:56:35;97403.34;;;-1.72;100.00
4012;BME280;2020;48.682;9.024;2023-01-31T06:59:00;97397.41;;;-1.72;100.00
4012;BME280;2020;48.682;9.024;2023-01-31T07:01:25;97387.09;;;-1.69;100.00
4012;BME280;2020;48.682;9.024;2023-01-31T07:03:50;97387.09;;;-1.69;100.00
4012;BME280;2020;48.682;9.024;2023-01-31T07:06:16;97388.88;;;-1.71;100.00
4012;BME280;2020;48.682;9.024;2023-01-31T07:08:44;97382.09;;;-1.72;100.00
4012;BME280;2020;48.682;9.024;2023-01-31T07:11:09;97369.22;;;-1.69;100.00
4012;BME280;2020;48.682;9.024;2023-01-31T07:13:34;97376.88;;;-1.69;100.00
4012;BME280;2020;48.682;9.024;2023-01-31T07:15:59;97383.66;;;-1.68;100.00
4012;BME280;2020;48.682;9.024;2023-01-31T07:18:25;97386.88;;;-1.63;100.00
4012;BME280;2020;48.682;9.024;2023-01-31T07:20:50;97379.88;;;-1.58;100.00
4012;BME280;2020;48.682;9.024;2023-01-31T07:23:15;97380.72;;;-1.35;100.00
4012;BME280;2020;48.682;9.024;2023-01-31T07:25:41;97383.31;;;-1.14;100.00
4012;BME280;2020;48.682;9.024;2023-01-31T07:28:06;97387.31;;;-1.07;100.00
4012;BME280;2020;48.682;9.024;2023-01-31T07:30:31;97383.38;;;-0.94;100.00
4012;BME280;2020;48.682;9.024;2023-01-31T07:32:56;97383.00;;;-0.84;100.00
4012;BME280;2020;48.682;9.024;2023-01-31T07:35:22;97391.97;;;-0.74;100.00
4012;BME280;2020;48.682;9.024;2023-01-31T07:37:50;97398.00;;;-0.54;99.71
4012;BME280;2020;48.682;9.024;2023-01-31T07:40:15;97395.72;;;-0.40;98.53
4012;BME280;2020;48.682;9.024;2023-01-31T07:42:41;97397.75;;;-0.27;97.75
4012;BME280;2020;48.682;9.024;2023-01-31T07:45:07;97402.72;;;-0.24;97.03
4012;BME280;2020;48.682;9.024;2023-01-31T07:47:34;97398.25;;;-0.19;96.41
4012;BME280;2020;48.682;9.024;2023-01-31T07:49:59;97396.47;;;-0.17;96.15
4012;BME280;2020;48.682;9.024;2023-01-31T07:52:24;97392.16;;;-0.17;95.55
4012;BME280;2020;48.682;9.024;2023-01-31T07:54:49;97400.19;;;-0.05;95.07
4012;BME280;2020;48.682;9.024;2023-01-31T07:57:15;97390.69;;;-0.02;94.84
4012;BME280;2020;48.682;9.024;2023-01-31T07:59:43;97399.84;;;0.23;94.24
4012;BME280;2020;48.682;9.024;2023-01-31T08:02:13;97398.06;;;0.45;94.13
4012;BME280;2020;48.682;9.024;2023-01-31T08:04:57;97404.97;;;0.62;92.13
4012;BME280;2020;48.682;9.024;2023-01-31T08:07:22;97401.81;;;0.93;92.59
4012;BME280;2020;48.682;9.024;2023-01-31T08:09:48;97399.06;;;1.15;90.13
4012;BME280;2020;48.682;9.024;2023-01-31T08:12:14;97408.59;;;1.31;90.38
4012;BME280;2020;48.682;9.024;2023-01-31T08:14:40;97401.66;;;1.33;87.38
4012;BME280;2020;48.682;9.024;2023-01-31T08:17:05;97409.19;;;1.54;87.32
4012;BME280;2020;48.682;9.024;2023-01-31T08:19:32;97404.06;;;1.54;87.01
4012;BME280;2020;48.682;9.024;2023-01-31T08:21:58;97402.53;;;1.67;85.81
4012;BME280;2020;48.682;9.024;2023-01-31T08:24:23;97406.59;;;1.89;84.56
4012;BME280;2020;48.682;9.024;2023-01-31T08:26:49;97408.84;;;1.95;85.91
4012;BME280;2020;48.682;9.024;2023-01-31T08:29:14;97404.59;;;1.78;84.87
4012;BME280;2020;48.682;9.024;2023-01-31T08:31:40;97402.94;;;2.11;84.96
4012;BME280;2020;48.682;9.024;2023-01-31T08:34:06;97399.63;;;2.09;85.06
4012;BME280;2020;48.682;9.024;2023-01-31T08:36:31;97405.38;;;1.96;85.53
4012;BME280;2020;48.682;9.024;2023-01-31T08:38:56;97396.84;;;1.96;86.12
4012;BME280;2020;48.682;9.024;2023-01-31T08:41:23;97392.41;;;1.82;84.82
4012;BME280;2020;48.682;9.024;2023-01-31T08:43:50;97397.06;;;1.91;84.76
4012;BME280;2020;48.682;9.024;2023-01-31T08:46:15;97400.81;;;2.19;84.60
4012;BME280;2020;48.682;9.024;2023-01-31T08:48:41;97394.19;;;2.31;84.23
4012;BME280;2020;48.682;9.024;2023-01-31T08:51:09;97377.13;;;2.46;83.09
4012;BME280;2020;48.682;9.024;2023-01-31T08:53:37;97379.78;;;2.44;83.70
4012;BME280;2020;48.682;9.024;2023-01-31T08:56:04;97369.84;;;2.54;82.23
4012;BME280;2020;48.682;9.024;2023-01-31T08:58:31;97372.66;;;2.82;82.77
4012;BME280;2020;48.682;9.024;2023-01-31T09:01:02;97365.88;;;3.11;82.90
4012;BME280;2020;48.682;9.024;2023-01-31T09:03:27;97365.81;;;3.43;79.33
4012;BME280;2020;48.682;9.024;2023-01-31T09:05:53;97366.72;;;3.42;78.84
4012;BME280;2020;48.682;9.024;2023-01-31T09:08:18;97362.84;;;3.35;79.32
4012;BME280;2020;48.682;9.024;2023-01-31T09:10:50;97365.50;;;3.17;78.57
4012;BME280;2020;48.682;9.024;2023-01-31T09:13:15;97362.81;;;3.04;78.33
4012;BME280;2020;48.682;9.024;2023-01-31T09:15:41;97372.63;;;2.98;78.65
4012;BME280;2020;48.682;9.024;2023-01-31T09:18:06;97371.81;;;2.81;78.24
4012;BME280;2020;48.682;9.024;2023-01-31T09:20:31;97368.66;;;2.76;79.23
4012;BME280;2020;48.682;9.024;2023-01-31T09:22:56;97382.34;;;2.60;77.92
4012;BME280;2020;48.682;9.024;2023-01-31T09:25:22;97376.53;;;2.41;80.38
4012;BME280;2020;48.682;9.024;2023-01-31T09:27:47;97374.78;;;2.25;80.77
4012;BME280;2020;48.682;9.024;2023-01-31T09:30:12;97365.16;;;2.13;81.87
4012;BME280;2020;48.682;9.024;2023-01-31T09:32:38;97372.59;;;2.01;82.54
4012;BME280;2020;48.682;9.024;2023-01-31T09:35:05;97370.78;;;2.03;83.01
4012;BME280;2020;48.682;9.024;2023-01-31T09:37:31;97372.72;;;1.98;82.59
4012;BME280;2020;48.682;9.024;2023-01-31T09:39:56;97370.97;;;2.16;84.03
4012;BME280;2020;48.682;9.024;2023-01-31T09:42:42;97368.50;;;2.15;82.69
4012;BME280;2020;48.682;9.024;2023-01-31T09:45:11;97360.56;;;2.36;83.11
4012;BME280;2020;48.682;9.024;2023-01-31T09:47:41;97355.75;;;2.29;80.31
4012;BME280;2020;48.682;9.024;2023-01-31T09:53:02;97357.50;;;1.95;82.58
4012;BME280;2020;48.682;9.024;2023-01-31T09:55:41;97359.16;;;1.96;83.39
4012;BME280;2020;48.682;9.024;2023-01-31T10:00:58;97350.00;;;2.08;83.18
4012;BME280;2020;48.682;9.024;2023-01-31T10:06:25;97355.34;;;1.87;81.34
4012;BME280;2020;48.682;9.024;2023-01-31T10:11:49;97372.34;;;1.72;82.33
4012;BME280;2020;48.682;9.024;2023-01-31T10:17:28;97372.34;;;1.72;82.08
4012;BME280;2020;48.682;9.024;2023-01-31T10:20:15;97367.63;;;1.81;83.05
4012;BME280;2020;48.682;9.024;2023-01-31T10:22:59;97375.03;;;1.87;82.54
4012;BME280;2020;48.682;9.024;2023-01-31T10:25:36;97383.94;;;1.80;82.23
4012;BME280;2020;48.682;9.024;2023-01-31T10:28:10;97382.53;;;1.74;81.32
4012;BME280;2020;48.682;9.024;2023-01-31T10:30:43;97379.13;;;1.73;82.98
4012;BME280;2020;48.682;9.024;2023-01-31T10:33:42;97370.06;;;1.84;82.13
4012;BME280;2020;48.682;9.024;2023-01-31T10:36:24;97363.84;;;2.06;80.58
4012;BME280;2020;48.682;9.024;2023-01-31T10:38:57;97364.03;;;2.34;79.52
4012;BME280;2020;48.682;9.024;2023-01-31T10:41:33;97355.06;;;2.58;80.71
4012;BME280;2020;48.682;9.024;2023-01-31T10:44:21;97357.41;;;2.62;78.40
4012;BME280;2020;48.682;9.024;2023-01-31T10:46:48;97354.75;;;2.48;79.01
4012;BME280;2020;48.682;9.024;2023-01-31T10:49:16;97353.75;;;2.51;79.84
4012;BME280;2020;48.682;9.024;2023-01-31T10:55:06;97350.75;;;2.74;78.94
4012;BME280;2020;48.682;9.024;2023-01-31T10:57:35;97350.44;;;2.65;77.11
4012;BME280;2020;48.682;9.024;2023-01-31T11:00:01;97351.56;;;2.75;79.15
4012;BME280;2020;48.682;9.024;2023-01-31T11:02:27;97348.44;;;2.70;80.83
4012;BME280;2020;48.682;9.024;2023-01-31T11:04:56;97348.19;;;2.58;79.43
4012;BME280;2020;48.682;9.024;2023-01-31T11:07:22;97338.91;;;2.56;79.55
4012;BME280;2020;48.682;9.024;2023-01-31T11:09:51;97342.13;;;2.59;80.42
4012;BME280;2020;48.682;9.024;2023-01-31T11:12:21;97343.56;;;2.49;78.56
4012;BME280;2020;48.682;9.024;2023-01-31T11:15:13;97338.81;;;2.57;79.45
4012;BME280;2020;48.682;9.024;2023-01-31T11:17:41;97332.50;;;2.79;80.07
4012;BME280;2020;48.682;9.024;2023-01-31T11:20:22;97335.63;;;3.00;77.14
4012;BME280;2020;48.682;9.024;2023-01-31T11:22:49;97345.50;;;3.22;78.76
4012;BME280;2020;48.682;9.024;2023-01-31T11:25:20;97337.03;;;3.20;77.57
4012;BME280;2020;48.682;9.024;2023-01-31T11:27:47;97330.06;;;3.22;76.02
4012;BME280;2020;48.682;9.024;2023-01-31T11:30:27;97312.88;;;3.54;78.05
4012;BME280;2020;48.682;9.024;2023-01-31T11:32:54;97300.53;;;3.88;75.61
4012;BME280;2020;48.682;9.024;2023-01-31T11:35:23;97294.53;;;4.16;75.70
4012;BME280;2020;48.682;9.024;2023-01-31T11:40:38;97289.88;;;3.79;74.09
4012;BME280;2020;48.682;9.024;2023-01-31T11:43:06;97282.88;;;3.53;74.45
4012;BME280;2020;48.682;9.024;2023-01-31T11:45:54;97272.59;;;3.38;72.94
4012;BME280;2020;48.682;9.024;2023-01-31T11:48:23;97267.06;;;3.44;74.66
4012;BME280;2020;48.682;9.024;2023-01-31T11:50:54;97268.78;;;3.29;73.08
4012;BME280;2020;48.682;9.024;2023-01-31T11:56:07;97259.09;;;3.04;73.01
4012;BME280;2020;48.682;9.024;2023-01-31T11:58:37;97253.41;;;3.13;73.05
4012;BME280;2020;48.682;9.024;2023-01-31T12:01:12;97257.09;;;3.09;73.67
4012;BME280;2020;48.682;9.024;2023-01-31T12:03:39;97274.34;;;3.07;73.63
4012;BME280;2020;48.682;9.024;2023-01-31T12:06:28;97282.22;;;2.89;73.21
4012;BME280;2020;48.682;9.024;2023-01-31T12:08:57;97280.34;;;2.77;72.76
4012;BME280;2020;48.682;9.024;2023-01-31T12:11:29;97274.78;;;2.69;72.81
4012;BME280;2020;48.682;9.024;2023-01-31T12:14:13;97279.94;;;2.69;73.93
4012;BME280;2020;48.682;9.024;2023-01-31T12:16:40;97276.41;;;2.55;74.51
4012;BME280;2020;48.682;9.024;2023-01-31T12:32:56;97250.13;;;2.50;74.35
4012;BME280;2020;48.682;9.024;2023-01-31T12:40:45;97214.16;;;2.34;75.37
4012;BME280;2020;48.682;9.024;2023-01-31T12:48:44;97213.19;;;2.37;77.19
4012;BME280;2020;48.682;9.024;2023-01-31T12:56:59;97215.53;;;2.25;76.77
4012;BME280;2020;48.682;9.024;2023-01-31T12:59:53;97215.34;;;2.12;77.50
4012;BME280;2020;48.682;9.024;2023-01-31T13:02:30;97221.50;;;2.10;76.42
4012;BME280;2020;48.682;9.024;2023-01-31T13:08:07;97204.28;;;1.96;77.03
4012;BME280;2020;48.682;9.024;2023-01-31T13:11:16;97193.31;;;1.92;77.17
4012;BME280;2020;48.682;9.024;2023-01-31T13:13:48;97181.41;;;1.91;78.31
4012;BME280;2020;48.682;9.024;2023-01-31T13:16:20;97194.81;;;1.96;78.50
4012;BME280;2020;48.682;9.024;2023-01-31T13:18:48;97186.69;;;1.88;79.00
4012;BME280;2020;48.682;9.024;2023-01-31T13:21:22;97183.38;;;1.86;78.34
4012;BME280;2020;48.682;9.024;2023-01-31T13:23:51;97185.22;;;1.84;78.29
4012;BME280;2020;48.682;9.024;2023-01-31T13:26:27;97183.56;;;1.83;78.22
4012;BME280;2020;48.682;9.024;2023-01-31T13:28:59;97172.81;;;1.76;77.97
4012;BME280;2020;48.682;9.024;2023-01-31T13:31:29;97182.97;;;1.78;79.13
4012;BME280;2020;48.682;9.024;2023-01-31T13:36:44;97172.31;;;1.85;79.61
4012;BME280;2020;48.682;9.024;2023-01-31T13:39:38;97177.28;;;1.88;80.09
4012;BME280;2020;48.682;9.024;2023-01-31T13:42:05;97173.13;;;1.86;80.49
4012;BME280;2020;48.682;9.024;2023-01-31T13:44:31;97171.97;;;1.75;78.70
4012;BME280;2020;48.682;9.024;2023-01-31T13:47:01;97169.81;;;1.68;79.54
4012;BME280;2020;48.682;9.024;2023-01-31T13:49:35;97156.31;;;1.64;79.08
4012;BME280;2020;48.682;9.024;2023-01-31T13:52:14;97161.88;;;1.72;79.38
4012;BME280;2020;48.682;9.024;2023-01-31T13:54:47;97173.78;;;1.73;79.73
4012;BME280;2020;48.682;9.024;2023-01-31T13:57:28;97171.06;;;1.77;78.47
4012;BME280;2020;48.682;9.024;2023-01-31T14:00:07;97170.25;;;1.76;79.27
4012;BME280;2020;48.682;9.024;2023-01-31T14:02:33;97174.63;;;1.74;79.30
4012;BME280;2020;48.682;9.024;2023-01-31T14:05:48;97175.28;;;1.78;79.25
4012;BME280;2020;48.682;9.024;2023-01-31T14:10:52;97172.28;;;1.69;80.97
4012;BME280;2020;48.682;9.024;2023-01-31T14:13:23;97171.56;;;1.67;79.77
4012;BME280;2020;48.682;9.024;2023-01-31T14:15:50;97180.25;;;1.65;80.04
4012;BME280;2020;48.682;9.024;2023-01-31T14:18:42;97170.50;;;1.55;80.43
4012;BME280;2020;48.682;9.024;2023-01-31T14:23:55;97155.91;;;1.56;79.89
4012;BME280;2020;48.682;9.024;2023-01-31T14:26:34;97154.09;;;1.58;80.77
4012;BME280;2020;48.682;9.024;2023-01-31T14:29:17;97126.78;;;1.57;80.33
4012;BME280;2020;48.682;9.024;2023-01-31T14:31:44;97137.03;;;1.57;80.38
4012;BME280;2020;48.682;9.024;2023-01-31T14:34:19;97131.41;;;1.66;81.41
4012;BME280;2020;48.682;9.024;2023-01-31T14:53:46;97138.31;;;1.96;79.00
4012;BME280;2020;48.682;9.024;2023-01-31T14:56:42;97135.00;;;1.94;79.63
4012;BME280;2020;48.682;9.024;2023-01-31T14:59:26;97134.09;;;1.95;79.27
4012;BME280;2020;48.682;9.024;2023-01-31T15:01:53;97130.88;;;1.92;79.52
4012;BME280;2020;48.682;9.024;2023-01-31T15:04:22;97133.69;;;1.87;79.51
4012;BME280;2020;48.682;9.024;2023-01-31T15:06:49;97145.78;;;1.85;79.04
4012;BME280;2020;48.682;9.024;2023-01-31T15:11:55;97128.91;;;1.81;79.84
4012;BME280;2020;48.682;9.024;2023-01-31T15:14:25;97122.13;;;1.80;79.37
4012;BME280;2020;48.682;9.024;2023-01-31T15:16:57;97123.28;;;1.74;79.76
4012;BME280;2020;48.682;9.024;2023-01-31T15:19:24;97131.63;;;1.78;79.78
4012;BME280;2020;48.682;9.024;2023-01-31T15:21:57;97135.13;;;1.77;79.49
4012;BME280;2020;48.682;9.024;2023-01-31T15:24:37;97151.25;;;1.79;80.52